Time;durP1;ratioP1;P1;durP2;ratioP2;P2;SDS_P1;SDS_P2;PMS_P1;PMS_P2;Temp;Humidity;BMP_temperature;BMP_pressure;BME280_temperature;BME280_humidity;BME280_pressure;Samples;Min_cycle;Max_cycle;Signal;HPM_P1;HPM_P2
2023/05/17 00:01:32;;;;;;;0.50;0.50;;;9.30;88.00;;;;;;5016345;28;20188;-70
2023/05/17 00:03:58;;;;;;;2.03;1.07;;;9.40;88.20;;;;;;5016315;28;20279;-70
2023/05/17 00:06:23;;;;;;;1.10;0.60;;;9.30;87.80;;;;;;5016095;28;20222;-70
2023/05/17 00:08:49;;;;;;;0.50;0.50;;;9.20;86.30;;;;;;5016974;28;20254;-69
2023/05/17 00:11:15;;;;;;;0.67;0.67;;;9.10;85.60;;;;;;5016433;28;20685;-70
2023/05/17 00:13:41;;;;;;;0.40;0.40;;;9.10;85.60;;;;;;5016245;28;20174;-70
2023/05/17 00:16:07;;;;;;;0.63;0.63;;;9.10;87.60;;;;;;5015908;28;20246;-70
2023/05/17 00:18:32;;;;;;;0.30;0.30;;;9.10;89.50;;;;;;5016217;28;20555;-70
2023/05/17 00:20:58;;;;;;;1.53;0.80;;;9.10;89.70;;;;;;5016024;28;20187;-70
2023/05/17 00:23:24;;;;;;;0.50;0.40;;;8.90;86.90;;;;;;5015955;28;20167;-70
2023/05/17 00:25:49;;;;;;;0.30;0.30;;;9.00;89.60;;;;;;5015710;28;20573;-70
2023/05/17 00:28:16;;;;;;;0.57;0.57;;;9.00;85.80;;;;;;5015889;28;20168;-70
2023/05/17 00:30:41;;;;;;;0.30;0.30;;;9.10;85.70;;;;;;4998227;28;20426;-70
2023/05/17 00:33:07;;;;;;;0.30;0.30;;;9.10;86.20;;;;;;5015829;28;20176;-70
2023/05/17 00:35:32;;;;;;;0.70;0.70;;;9.20;89.20;;;;;;5015623;28;20176;-71
2023/05/17 00:37:58;;;;;;;0.70;0.60;;;9.20;90.80;;;;;;5015813;28;20171;-71
2023/05/17 00:40:24;;;;;;;0.40;0.40;;;8.80;93.10;;;;;;5015478;28;20217;-69
2023/05/17 00:42:50;;;;;;;0.40;0.40;;;8.80;86.90;;;;;;5015629;28;20175;-71
2023/05/17 00:45:16;;;;;;;1.13;0.97;;;8.80;87.60;;;;;;5015760;28;20973;-70
2023/05/17 00:47:41;;;;;;;0.40;0.40;;;8.80;90.30;;;;;;5015499;28;20273;-69
2023/05/17 00:50:07;;;;;;;0.30;0.30;;;8.80;90.30;;;;;;5015487;28;20182;-70
2023/05/17 00:52:37;;;;;;;0.63;0.63;;;8.80;89.80;;;;;;5015475;28;20171;-70
2023/05/17 00:55:02;;;;;;;0.40;0.40;;;8.60;89.20;;;;;;5015587;28;20183;-70
2023/05/17 00:57:28;;;;;;;0.40;0.40;;;8.60;89.10;;;;;;5015145;28;20171;-70
2023/05/17 00:59:54;;;;;;;0.97;0.97;;;8.50;88.90;;;;;;5015332;28;20399;-71
2023/05/17 01:02:21;;;;;;;0.50;0.50;;;8.70;90.10;;;;;;5015081;28;20856;-70
2023/05/17 01:04:47;;;;;;;0.38;0.38;;;8.50;91.50;;;;;;5015137;28;20207;-70
2023/05/17 01:07:13;;;;;;;0.40;0.40;;;8.60;90.60;;;;;;5014972;28;20187;-71
2023/05/17 01:09:39;;;;;;;1.87;1.77;;;8.60;90.10;;;;;;5015278;28;20538;-70
2023/05/17 01:12:19;;;;;;;0.30;0.30;;;8.60;90.00;;;;;;5014873;28;20489;-70
2023/05/17 01:15:09;;;;;;;1.33;1.33;;;8.60;91.00;;;;;;5015261;28;20171;-71
2023/05/17 01:18:00;;;;;;;0.40;0.40;;;8.60;90.90;;;;;;4997521;28;20262;-71
2023/05/17 01:20:40;;;;;;;0.73;0.70;;;8.60;94.50;;;;;;5014887;28;20172;-70
2023/05/17 01:23:33;;;;;;;0.60;0.60;;;8.60;90.00;;;;;;5014870;28;20159;-70
2023/05/17 01:26:18;;;;;;;1.17;1.17;;;8.60;89.40;;;;;;5014631;28;20202;-70
2023/05/17 01:28:46;;;;;;;0.40;0.40;;;8.70;89.00;;;;;;5014931;28;20181;-70
2023/05/17 01:31:13;;;;;;;0.50;0.50;;;8.60;87.40;;;;;;5014723;28;20275;-70
2023/05/17 01:33:38;;;;;;;0.50;0.50;;;8.60;88.20;;;;;;5014658;28;20531;-70
2023/05/17 01:36:05;;;;;;;0.40;0.40;;;8.50;87.30;;;;;;5014512;28;20190;-69
2023/05/17 01:38:30;;;;;;;0.30;0.30;;;8.50;87.70;;;;;;4997199;28;20725;-69
2023/05/17 01:41:10;;;;;;;0.40;0.40;;;8.40;88.20;;;;;;5014499;28;20278;-71
2023/05/17 01:43:54;;;;;;;0.40;0.40;;;8.30;88.40;;;;;;5014725;28;20171;-69
2023/05/17 01:46:29;;;;;;;0.50;0.50;;;8.40;87.10;;;;;;5014462;28;20199;-71
2023/05/17 01:49:17;;;;;;;0.40;0.40;;;8.50;87.20;;;;;;5014492;28;20572;-70
2023/05/17 01:51:48;;;;;;;0.47;0.47;;;8.50;89.60;;;;;;5013939;28;20740;-70
2023/05/17 01:54:19;;;;;;;0.40;0.40;;;8.50;88.70;;;;;;5014199;28;20221;-69
2023/05/17 01:56:51;;;;;;;0.82;0.82;;;8.60;90.10;;;;;;5014239;28;20199;-68
2023/05/17 01:59:23;;;;;;;0.60;0.50;;;8.60;88.10;;;;;;5014418;28;20409;-70
2023/05/17 02:01:50;;;;;;;2.90;0.70;;;8.60;88.10;;;;;;5014301;28;20234;-70
2023/05/17 02:04:15;;;;;;;1.45;0.88;;;8.50;89.70;;;;;;5014126;28;20187;-70
2023/05/17 02:06:41;;;;;;;0.30;0.30;;;8.50;87.90;;;;;;5014117;28;20178;-69
2023/05/17 02:09:07;;;;;;;0.70;0.70;;;8.40;89.10;;;;;;5014321;28;20271;-70
2023/05/17 02:11:34;;;;;;;0.40;0.40;;;8.40;87.50;;;;;;5013946;28;20202;-71
2023/05/17 02:14:00;;;;;;;0.50;0.50;;;8.30;87.30;;;;;;5013904;28;20199;-71
2023/05/17 02:16:25;;;;;;;0.80;0.80;;;8.20;89.50;;;;;;5013783;28;20203;-70
2023/05/17 02:18:51;;;;;;;0.30;0.30;;;8.20;88.80;;;;;;5013881;28;20171;-69
2023/05/17 02:21:17;;;;;;;0.43;0.43;;;8.20;88.70;;;;;;5013920;28;20187;-70
2023/05/17 02:23:43;;;;;;;0.30;0.30;;;8.10;90.00;;;;;;5014077;28;20190;-70
2023/05/17 02:26:08;;;;;;;0.40;0.40;;;8.10;89.30;;;;;;5013646;28;20481;-71
2023/05/17 02:28:34;;;;;;;0.40;0.40;;;8.10;88.60;;;;;;4996308;28;20222;-70
2023/05/17 02:30:59;;;;;;;0.40;0.40;;;8.20;88.90;;;;;;5013727;28;20274;-71
2023/05/17 02:33:25;;;;;;;0.40;0.40;;;8.10;89.50;;;;;;5013823;28;20247;-71
2023/05/17 02:35:51;;;;;;;0.38;0.38;;;8.10;89.10;;;;;;5013576;28;20182;-69
2023/05/17 02:38:17;;;;;;;0.40;0.40;;;8.10;89.20;;;;;;5014197;28;20180;-71
2023/05/17 02:40:42;;;;;;;0.50;0.50;;;8.10;89.30;;;;;;5013691;28;20188;-70
2023/05/17 02:43:08;;;;;;;0.30;0.30;;;8.20;88.80;;;;;;4996026;28;20175;-70
2023/05/17 02:45:33;;;;;;;0.40;0.40;;;8.20;89.50;;;;;;5013346;28;20214;-70
2023/05/17 02:47:59;;;;;;;0.40;0.40;;;8.20;89.70;;;;;;5013797;28;20167;-71
2023/05/17 02:50:25;;;;;;;0.60;0.60;;;8.10;90.40;;;;;;5013569;28;20166;-70
2023/05/17 02:52:50;;;;;;;0.40;0.40;;;7.90;90.20;;;;;;5013636;28;20164;-70
2023/05/17 02:55:16;;;;;;;0.40;0.40;;;7.80;90.60;;;;;;5013498;28;20175;-70
2023/05/17 02:57:41;;;;;;;0.60;0.60;;;8.00;90.20;;;;;;5013417;28;20175;-69
2023/05/17 03:00:08;;;;;;;0.50;0.50;;;7.70;92.20;;;;;;5013372;28;20179;-70
2023/05/17 03:02:34;;;;;;;0.65;0.65;;;7.70;90.70;;;;;;5013449;28;20178;-71
2023/05/17 03:04:59;;;;;;;0.50;0.50;;;7.70;90.50;;;;;;5017000;28;20207;-70
2023/05/17 03:07:25;;;;;;;0.40;0.40;;;7.80;90.90;;;;;;5017215;28;20635;-70
2023/05/17 03:09:51;;;;;;;0.40;0.40;;;8.00;90.80;;;;;;5017622;28;20173;-71
2023/05/17 03:12:16;;;;;;;2.43;0.87;;;8.00;90.00;;;;;;5017191;28;20214;-70
2023/05/17 03:14:42;;;;;;;0.40;0.40;;;7.90;90.00;;;;;;5017561;28;20179;-69
2023/05/17 03:17:07;;;;;;;0.30;0.30;;;8.00;90.10;;;;;;5017212;28;20185;-70
2023/05/17 03:19:33;;;;;;;0.40;0.40;;;7.90;89.00;;;;;;5017277;28;20186;-70
2023/05/17 03:21:59;;;;;;;0.43;0.43;;;7.90;90.00;;;;;;5017094;28;20227;-70
2023/05/17 03:24:24;;;;;;;0.40;0.40;;;8.00;90.00;;;;;;5017280;28;20652;-69
2023/05/17 03:26:50;;;;;;;2.30;2.20;;;8.00;90.00;;;;;;5016883;28;20167;-70
2023/05/17 03:29:16;;;;;;;0.40;0.40;;;8.00;89.80;;;;;;5017033;28;20391;-70
2023/05/17 03:31:41;;;;;;;0.50;0.40;;;8.00;88.90;;;;;;5016888;28;20710;-70
2023/05/17 03:34:07;;;;;;;0.70;0.70;;;7.90;90.00;;;;;;5013553;28;20266;-70
2023/05/17 03:36:38;;;;;;;0.40;0.40;;;7.80;90.30;;;;;;5016739;28;20256;-71
2023/05/17 03:39:04;;;;;;;0.60;0.60;;;7.70;90.70;;;;;;5015828;28;20198;-71
2023/05/17 03:41:30;;;;;;;0.70;0.70;;;7.70;90.80;;;;;;5016485;28;20607;-70
2023/05/17 03:43:56;;;;;;;0.70;0.70;;;7.70;90.90;;;;;;5016749;28;20171;-71
2023/05/17 03:46:22;;;;;;;0.40;0.40;;;7.70;91.20;;;;;;5016675;28;20244;-70
2023/05/17 03:48:48;;;;;;;0.50;0.50;;;7.70;91.10;;;;;;5016638;28;20415;-71
2023/05/17 03:51:14;;;;;;;0.40;0.40;;;7.70;91.00;;;;;;5016583;28;20197;-71
2023/05/17 03:53:42;;;;;;;3.38;3.15;;;7.60;90.60;;;;;;5016572;28;20162;-70
2023/05/17 03:56:08;;;;;;;0.40;0.40;;;7.50;90.60;;;;;;5016460;28;20182;-71
2023/05/17 03:58:34;;;;;;;1.30;0.77;;;7.40;90.60;;;;;;5016559;28;20178;-70
2023/05/17 04:01:00;;;;;;;0.53;0.53;;;7.50;90.80;;;;;;5016406;28;20276;-71
2023/05/17 04:03:25;;;;;;;0.40;0.40;;;7.40;90.90;;;;;;5016342;28;20186;-69
2023/05/17 04:05:51;;;;;;;0.40;0.40;;;7.50;90.60;;;;;;5016360;28;20205;-70
2023/05/17 04:08:17;;;;;;;6.20;2.20;;;7.50;90.70;;;;;;5016408;28;20549;-70
2023/05/17 04:10:43;;;;;;;0.40;0.40;;;7.50;90.80;;;;;;5016325;28;20191;-70
2023/05/17 04:13:08;;;;;;;0.40;0.40;;;7.50;90.60;;;;;;5016219;28;20626;-71
2023/05/17 04:15:34;;;;;;;2.30;0.50;;;7.40;91.00;;;;;;5015495;28;20205;-71
2023/05/17 04:18:00;;;;;;;0.38;0.38;;;7.40;91.00;;;;;;5016142;28;20183;-69
2023/05/17 04:20:26;;;;;;;0.30;0.30;;;7.60;96.00;;;;;;5016153;28;20534;-69
2023/05/17 04:22:51;;;;;;;0.30;0.30;;;7.50;91.60;;;;;;5016097;28;20183;-67
2023/05/17 04:25:17;;;;;;;0.50;0.50;;;8.00;99.90;;;;;;5015895;28;20202;-70
2023/05/17 04:27:45;;;;;;;1.63;0.80;;;8.70;99.90;;;;;;5015732;28;20531;-69
2023/05/17 04:30:11;;;;;;;0.30;0.30;;;8.80;91.80;;;;;;4997164;28;20973;-69
2023/05/17 04:32:37;;;;;;;0.30;0.30;;;8.70;91.00;;;;;;5016356;28;20182;-70
2023/05/17 04:35:03;;;;;;;1.07;0.90;;;8.70;90.40;;;;;;5016009;28;20174;-70
2023/05/17 04:37:29;;;;;;;0.50;0.50;;;8.70;90.80;;;;;;5015741;28;20689;-70
2023/05/17 04:39:55;;;;;;;0.50;0.50;;;8.70;90.60;;;;;;5015980;28;20183;-70
2023/05/17 04:42:21;;;;;;;1.27;1.27;;;8.60;91.70;;;;;;5015664;28;20588;-70
2023/05/17 04:44:46;;;;;;;1.27;0.93;;;8.60;90.80;;;;;;5013982;28;20206;-70
2023/05/17 04:47:12;;;;;;;1.23;1.07;;;8.80;91.20;;;;;;5015455;28;20174;-69
2023/05/17 04:49:38;;;;;;;0.50;0.50;;;9.10;89.90;;;;;;4998206;28;20530;-70
2023/05/17 04:52:04;;;;;;;0.30;0.30;;;9.50;87.70;;;;;;5015348;28;20196;-70
2023/05/17 04:54:29;;;;;;;0.30;0.30;;;10.10;86.00;;;;;;5015809;28;20527;-70
2023/05/17 04:56:55;;;;;;;0.40;0.40;;;10.80;83.80;;;;;;5015418;28;20403;-70
2023/05/17 04:59:21;;;;;;;0.50;0.50;;;11.10;82.60;;;;;;5015462;28;20182;-69
2023/05/17 05:01:46;;;;;;;0.60;0.60;;;11.40;80.50;;;;;;5015231;28;20378;-70
2023/05/17 05:04:12;;;;;;;0.40;0.40;;;11.60;78.40;;;;;;5015196;28;20202;-70
2023/05/17 05:06:38;;;;;;;0.60;0.60;;;11.70;77.50;;;;;;4997440;28;20198;-70
2023/05/17 05:09:04;;;;;;;1.37;0.60;;;11.10;77.40;;;;;;5015320;28;20625;-70
2023/05/17 05:11:30;;;;;;;0.40;0.40;;;10.50;78.50;;;;;;5015050;28;20450;-70
2023/05/17 05:13:56;;;;;;;0.70;0.60;;;10.00;80.60;;;;;;5013733;28;20407;-70
2023/05/17 05:16:23;;;;;;;0.40;0.40;;;9.60;82.70;;;;;;5014446;28;20184;-71
2023/05/17 05:18:48;;;;;;;2.80;0.77;;;9.30;85.00;;;;;;5013254;28;20627;-68
2023/05/17 05:21:14;;;;;;;0.80;0.80;;;9.70;85.30;;;;;;5014817;28;20283;-71
2023/05/17 05:23:40;;;;;;;0.90;0.70;;;10.40;80.00;;;;;;5015215;28;20168;-71
2023/05/17 05:26:05;;;;;;;0.50;0.50;;;10.80;77.70;;;;;;4997277;28;20206;-70
2023/05/17 05:28:31;;;;;;;0.40;0.40;;;11.40;77.00;;;;;;5013901;28;20681;-71
2023/05/17 05:30:59;;;;;;;0.30;0.30;;;12.10;77.00;;;;;;5015132;28;20192;-73
2023/05/17 05:33:24;;;;;;;0.30;0.30;;;13.10;76.60;;;;;;5014472;28;20160;-71
2023/05/17 05:35:50;;;;;;;0.50;0.50;;;13.80;72.50;;;;;;5014237;28;20418;-71
2023/05/17 05:38:16;;;;;;;0.40;0.40;;;14.50;69.30;;;;;;5014215;28;20626;-71
2023/05/17 05:40:41;;;;;;;0.50;0.50;;;14.90;67.80;;;;;;5013409;28;20270;-71
2023/05/17 05:43:09;;;;;;;0.30;0.30;;;15.30;64.30;;;;;;5014664;28;20176;-71
2023/05/17 05:45:34;;;;;;;0.40;0.40;;;15.40;64.70;;;;;;5013790;28;20204;-71
2023/05/17 05:48:00;;;;;;;0.40;0.40;;;15.80;62.70;;;;;;5014447;28;20457;-71
2023/05/17 05:50:25;;;;;;;0.30;0.30;;;16.50;64.40;;;;;;5014617;28;20166;-70
2023/05/17 05:52:51;;;;;;;0.70;0.67;;;16.70;60.40;;;;;;5014674;28;20180;-71
2023/05/17 05:55:17;;;;;;;0.40;0.40;;;16.80;58.40;;;;;;5014442;28;20579;-71
2023/05/17 05:57:42;;;;;;;0.40;0.40;;;16.60;56.90;;;;;;5014168;28;20197;-71
2023/05/17 06:00:08;;;;;;;0.43;0.40;;;15.70;56.30;;;;;;5014210;28;20172;-71
2023/05/17 06:02:34;;;;;;;0.37;0.37;;;15.30;59.70;;;;;;5014888;28;20281;-71
2023/05/17 06:05:02;;;;;;;0.40;0.40;;;15.90;58.60;;;;;;5014266;28;20456;-71
2023/05/17 06:07:27;;;;;;;0.40;0.40;;;15.90;56.60;;;;;;5012401;28;20967;-69
2023/05/17 06:09:53;;;;;;;0.40;0.40;;;15.90;56.60;;;;;;5014513;28;20406;-71
2023/05/17 06:12:19;;;;;;;0.87;0.87;;;16.40;58.20;;;;;;5013813;28;20208;-70
2023/05/17 06:14:45;;;;;;;0.40;0.40;;;17.10;55.30;;;;;;5013479;28;20175;-70
2023/05/17 06:17:10;;;;;;;0.93;0.60;;;17.30;53.50;;;;;;5013452;28;20467;-69
2023/05/17 06:19:36;;;;;;;0.50;0.50;;;16.80;55.20;;;;;;5013191;28;20195;-72
2023/05/17 06:22:02;;;;;;;0.50;0.40;;;17.40;53.40;;;;;;5013369;28;20207;-72
2023/05/17 06:24:27;;;;;;;0.73;0.43;;;18.20;53.60;;;;;;5014245;28;20672;-72
2023/05/17 06:26:53;;;;;;;0.40;0.40;;;19.30;51.90;;;;;;4996083;28;20163;-72
2023/05/17 06:29:18;;;;;;;0.60;0.37;;;20.80;50.40;;;;;;5014399;28;20168;-71
2023/05/17 06:31:44;;;;;;;0.47;0.37;;;22.10;46.10;;;;;;5013814;28;20232;-71
2023/05/17 06:34:10;;;;;;;2.23;0.70;;;23.10;41.60;;;;;;5013897;28;20202;-72
2023/05/17 06:36:35;;;;;;;0.50;0.40;;;22.60;41.80;;;;;;5013581;28;20174;-73
2023/05/17 06:39:01;;;;;;;0.37;0.37;;;23.30;41.70;;;;;;5013994;28;20247;-71
2023/05/17 06:41:26;;;;;;;0.40;0.40;;;23.90;39.70;;;;;;5013473;28;20195;-71
2023/05/17 06:43:52;;;;;;;0.47;0.40;;;22.60;37.70;;;;;;5011785;28;20171;-71
2023/05/17 06:46:18;;;;;;;2.30;0.67;;;22.10;39.70;;;;;;5012144;28;20250;-71
2023/05/17 06:48:43;;;;;;;1.07;0.60;;;22.30;38.90;;;;;;5012334;28;20175;-71
2023/05/17 06:51:09;;;;;;;0.50;0.50;;;21.90;39.90;;;;;;5012226;28;20195;-70
2023/05/17 06:53:34;;;;;;;0.80;0.50;;;20.40;38.70;;;;;;5012282;28;20189;-70
2023/05/17 06:56:00;;;;;;;0.40;0.40;;;19.40;41.40;;;;;;5012211;28;20181;-71
2023/05/17 06:58:26;;;;;;;0.70;0.53;;;19.30;43.10;;;;;;5013088;28;20174;-70
2023/05/17 07:00:51;;;;;;;0.93;0.50;;;18.90;42.00;;;;;;4995839;28;20203;-71
2023/05/17 07:03:17;;;;;;;0.50;0.50;;;18.40;41.80;;;;;;5013542;28;20586;-71
2023/05/17 07:05:43;;;;;;;0.50;0.50;;;18.40;41.80;;;;;;5013123;28;20207;-71
2023/05/17 07:08:08;;;;;;;0.93;0.93;;;17.50;43.80;;;;;;5013540;28;20190;-70
2023/05/17 07:10:34;;;;;;;2.30;2.20;;;16.90;44.10;;;;;;5013391;28;20202;-70
2023/05/17 07:13:00;;;;;;;0.30;0.30;;;15.90;46.10;;;;;;5013258;28;20183;-70
2023/05/17 07:15:25;;;;;;;0.40;0.40;;;15.60;44.90;;;;;;5013862;28;20214;-70
2023/05/17 07:17:51;;;;;;;0.50;0.50;;;15.10;45.80;;;;;;5013505;28;20178;-71
2023/05/17 07:20:16;;;;;;;0.50;0.40;;;14.80;46.70;;;;;;5013282;28;20179;-70
2023/05/17 07:22:42;;;;;;;1.43;0.50;;;14.90;45.90;;;;;;5013405;28;20170;-71
2023/05/17 07:25:08;;;;;;;0.37;0.37;;;16.00;45.70;;;;;;5013376;28;20683;-70
2023/05/17 07:27:34;;;;;;;0.50;0.40;;;16.60;45.20;;;;;;5013217;28;20183;-71
2023/05/17 07:30:00;;;;;;;0.70;0.70;;;17.00;43.20;;;;;;5013339;28;20410;-70
2023/05/17 07:32:26;;;;;;;0.40;0.40;;;17.30;43.10;;;;;;4995490;28;20663;-70
2023/05/17 07:34:51;;;;;;;1.23;1.13;;;17.70;42.70;;;;;;5013165;28;20415;-71
2023/05/17 07:37:17;;;;;;;0.50;0.50;;;18.70;42.80;;;;;;5013016;28;20198;-71
2023/05/17 07:39:43;;;;;;;0.43;0.43;;;20.10;42.30;;;;;;5013268;28;20175;-71
2023/05/17 07:42:08;;;;;;;0.60;0.43;;;21.70;41.50;;;;;;5013047;28;20195;-70
2023/05/17 07:44:34;;;;;;;0.47;0.47;;;23.00;37.90;;;;;;5013192;28;20206;-71
2023/05/17 07:47:00;;;;;;;0.30;0.30;;;23.40;37.80;;;;;;5012927;28;20971;-71
2023/05/17 07:49:26;;;;;;;0.30;0.30;;;23.90;36.70;;;;;;5013091;28;20260;-71
2023/05/17 07:51:52;;;;;;;0.60;0.60;;;24.80;35.20;;;;;;5015899;28;20188;-71
2023/05/17 07:54:27;;;;;;;1.10;0.80;;;25.30;34.60;;;;;;5016819;28;20791;-71
2023/05/17 07:56:54;;;;;;;0.40;0.40;;;24.40;33.70;;;;;;5016409;28;21000;-71
2023/05/17 07:59:21;;;;;;;0.50;0.50;;;24.30;35.90;;;;;;5016599;28;20424;-71
2023/05/17 08:01:46;;;;;;;0.60;0.60;;;24.60;36.20;;;;;;5016548;28;20445;-71
2023/05/17 08:04:13;;;;;;;1.13;0.60;;;24.80;34.80;;;;;;5016501;28;20403;-72
2023/05/17 08:06:41;;;;;;;0.30;0.30;;;25.30;34.30;;;;;;5016242;28;20191;-71
2023/05/17 08:09:36;;;;;;;0.60;0.60;;;25.70;33.20;;;;;;5015960;28;20421;-71
2023/05/17 08:12:03;;;;;;;2.13;0.67;;;25.70;31.70;;;;;;5015278;28;20450;-71
2023/05/17 08:14:28;;;;;;;0.40;0.40;;;24.90;32.70;;;;;;4998682;28;20411;-70
2023/05/17 08:16:54;;;;;;;1.00;0.90;;;23.60;33.10;;;;;;5016137;28;20202;-71
2023/05/17 08:19:20;;;;;;;0.40;0.40;;;22.60;34.40;;;;;;5016130;28;20505;-71
2023/05/17 08:21:46;;;;;;;0.60;0.60;;;22.40;35.00;;;;;;5016099;28;20538;-70
2023/05/17 08:24:11;;;;;;;1.23;1.13;;;22.50;34.40;;;;;;5015968;28;20171;-71
2023/05/17 08:26:37;;;;;;;0.70;0.70;;;22.70;33.10;;;;;;5015790;28;20407;-71
2023/05/17 08:29:03;;;;;;;0.40;0.40;;;23.20;33.80;;;;;;5016026;28;20167;-70
2023/05/17 08:31:30;;;;;;;1.17;1.07;;;23.60;35.70;;;;;;5015917;28;20451;-71
2023/05/17 08:33:56;;;;;;;0.87;0.60;;;23.40;32.90;;;;;;5016101;28;20757;-70
2023/05/17 08:36:22;;;;;;;0.60;0.60;;;22.90;33.00;;;;;;5015692;28;20494;-71
2023/05/17 08:38:47;;;;;;;0.67;0.60;;;23.30;34.00;;;;;;5015803;28;20917;-72
2023/05/17 08:41:13;;;;;;;0.60;0.60;;;23.90;32.40;;;;;;5014136;28;20386;-71
2023/05/17 08:43:39;;;;;;;0.70;0.50;;;25.00;32.20;;;;;;5014677;28;20174;-71
2023/05/17 08:46:05;;;;;;;1.13;0.70;;;24.00;31.40;;;;;;5014459;28;20196;-71
2023/05/17 08:48:35;;;;;;;0.80;0.67;;;22.50;32.40;;;;;;5015246;28;20202;-71
2023/05/17 08:51:01;;;;;;;0.40;0.40;;;22.80;34.80;;;;;;5013988;28;20192;-72
2023/05/17 08:53:27;;;;;;;0.43;0.40;;;23.40;35.50;;;;;;5015355;28;20402;-72
2023/05/17 08:55:59;;;;;;;0.97;0.70;;;22.90;32.30;;;;;;5015190;28;20450;-73
2023/05/17 08:58:28;;;;;;;2.80;1.90;;;21.90;33.10;;;;;;5015220;28;20414;-72
2023/05/17 09:00:56;;;;;;;0.40;0.40;;;21.40;35.20;;;;;;5015306;28;20445;-73
2023/05/17 09:03:23;;;;;;;1.00;0.73;;;20.50;34.70;;;;;;5015330;28;20406;-73
2023/05/17 09:05:54;;;;;;;0.90;0.40;;;20.30;36.00;;;;;;5014875;28;20458;-73
2023/05/17 09:08:21;;;;;;;0.50;0.50;;;20.90;35.90;;;;;;5015356;28;20394;-74
2023/05/17 09:10:47;;;;;;;1.10;0.87;;;22.10;36.20;;;;;;5015044;28;20802;-73
2023/05/17 09:13:13;;;;;;;0.90;0.90;;;23.00;32.90;;;;;;5015033;28;20512;-73
2023/05/17 09:15:43;;;;;;;1.50;0.50;;;22.60;35.10;;;;;;5014273;28;20497;-73
2023/05/17 09:18:12;;;;;;;0.47;0.47;;;21.90;32.90;;;;;;5014695;28;20195;-68
2023/05/17 09:20:38;;;;;;;0.70;0.70;;;21.50;37.80;;;;;;5015095;28;20438;-68
2023/05/17 09:23:09;;;;;;;2.07;0.80;;;21.50;38.90;;;;;;5013434;28;20384;-73
2023/05/17 09:25:36;;;;;;;0.70;0.67;;;21.40;36.60;;;;;;5014986;28;20541;-71
2023/05/17 09:28:08;;;;;;;1.03;0.53;;;21.80;37.00;;;;;;5015340;28;20472;-72
2023/05/17 09:30:39;;;;;;;0.87;0.70;;;22.00;35.30;;;;;;5015326;28;20415;-72
2023/05/17 09:33:09;;;;;;;0.60;0.60;;;21.70;35.90;;;;;;5015097;28;20468;-70
2023/05/17 09:35:36;;;;;;;0.63;0.53;;;21.30;36.70;;;;;;5014883;28;20485;-73
2023/05/17 09:38:10;;;;;;;1.27;1.17;;;21.50;35.40;;;;;;5014964;28;20464;-71
2023/05/17 09:40:40;;;;;;;1.20;0.90;;;22.40;35.10;;;;;;5015010;28;20401;-73
2023/05/17 09:43:06;;;;;;;1.33;0.80;;;23.20;32.70;;;;;;5015193;28;20411;-73
2023/05/17 09:45:32;;;;;;;0.50;0.50;;;23.50;32.10;;;;;;5014594;28;20451;-72
2023/05/17 09:48:17;;;;;;;0.57;0.50;;;23.80;34.50;;;;;;5014845;28;20399;-71
2023/05/17 09:50:45;;;;;;;0.63;0.60;;;23.80;31.20;;;;;;5014594;28;20568;-71
2023/05/17 09:53:31;;;;;;;0.50;0.50;;;23.20;34.80;;;;;;5014820;28;20996;-73
2023/05/17 09:56:01;;;;;;;0.50;0.50;;;22.00;37.20;;;;;;5014487;28;20872;-72
2023/05/17 09:58:30;;;;;;;0.77;0.77;;;21.80;38.30;;;;;;5014508;28;20385;-73
2023/05/17 10:00:59;;;;;;;0.40;0.40;;;22.40;37.90;;;;;;5014308;28;20783;-70
2023/05/17 10:03:34;;;;;;;0.50;0.50;;;22.50;34.90;;;;;;5014294;28;20744;-71
2023/05/17 10:06:04;;;;;;;0.83;0.83;;;22.50;34.70;;;;;;5014258;28;20449;-72
2023/05/17 10:08:32;;;;;;;0.40;0.40;;;21.90;35.50;;;;;;5014235;28;20449;-70
2023/05/17 10:11:09;;;;;;;0.40;0.40;;;20.70;36.60;;;;;;5013906;28;20514;-73
2023/05/17 10:13:43;;;;;;;0.53;0.53;;;19.70;37.40;;;;;;5011888;28;20770;-72
2023/05/17 10:16:10;;;;;;;0.30;0.30;;;18.00;40.10;;;;;;5013436;28;20408;-73
2023/05/17 10:18:39;;;;;;;1.27;0.97;;;16.90;44.40;;;;;;5013511;28;20453;-73
2023/05/17 10:21:06;;;;;;;0.43;0.43;;;17.70;45.60;;;;;;5013487;28;20433;-72
2023/05/17 10:23:32;;;;;;;0.60;0.50;;;18.40;43.30;;;;;;5014102;28;20410;-72
2023/05/17 10:25:59;;;;;;;0.97;0.97;;;18.50;42.40;;;;;;5013668;28;20855;-73
2023/05/17 10:28:26;;;;;;;0.83;0.60;;;19.10;39.90;;;;;;4996388;28;20928;-73
2023/05/17 10:30:53;;;;;;;1.00;0.90;;;18.60;39.50;;;;;;5013834;28;20921;-73
2023/05/17 10:33:20;;;;;;;0.87;0.50;;;18.20;40.60;;;;;;5013689;28;20402;-73
2023/05/17 10:35:48;;;;;;;1.30;1.20;;;18.10;41.90;;;;;;5013702;28;20809;-74
2023/05/17 10:38:20;;;;;;;0.50;0.50;;;18.20;39.90;;;;;;5013768;28;20414;-74
2023/05/17 10:40:47;;;;;;;0.30;0.30;;;17.70;38.90;;;;;;4995037;28;20973;-74
2023/05/17 10:43:14;;;;;;;0.50;0.50;;;17.70;41.90;;;;;;5011787;28;20422;-73
2023/05/17 10:45:41;;;;;;;0.60;0.60;;;17.80;40.60;;;;;;5012431;28;20534;-73
2023/05/17 10:48:07;;;;;;;1.57;1.40;;;17.80;39.80;;;;;;4994757;28;20930;-74
2023/05/17 10:50:38;;;;;;;2.10;1.27;;;17.70;41.10;;;;;;5013350;28;20454;-73
2023/05/17 10:53:08;;;;;;;1.13;0.80;;;17.60;41.30;;;;;;5013679;28;20397;-73
2023/05/17 10:55:43;;;;;;;0.60;0.57;;;17.40;44.10;;;;;;5013548;28;20406;-72
2023/05/17 10:58:09;;;;;;;0.70;0.53;;;16.90;40.40;;;;;;5013652;28;20884;-73
2023/05/17 11:00:48;;;;;;;0.37;0.37;;;16.80;41.50;;;;;;5013333;28;20425;-73
2023/05/17 11:03:25;;;;;;;0.60;0.60;;;16.70;43.70;;;;;;5013584;28;20314;-73
2023/05/17 11:06:09;;;;;;;0.97;0.77;;;16.30;42.50;;;;;;5013154;28;20494;-74
2023/05/17 11:08:35;;;;;;;0.97;0.70;;;15.80;43.20;;;;;;4995852;28;20411;-73
2023/05/17 11:11:17;;;;;;;0.50;0.50;;;16.00;44.80;;;;;;5013270;28;20449;-72
2023/05/17 11:13:55;;;;;;;0.60;0.60;;;16.40;43.40;;;;;;5013482;28;20411;-73
2023/05/17 11:16:24;;;;;;;0.43;0.43;;;16.10;46.10;;;;;;4995545;28;20792;-73
2023/05/17 11:18:52;;;;;;;0.50;0.50;;;16.30;43.70;;;;;;5013250;28;20489;-73
2023/05/17 11:21:19;;;;;;;0.30;0.30;;;16.20;44.10;;;;;;5013335;28;20951;-73
2023/05/17 11:23:46;;;;;;;0.47;0.47;;;16.40;43.60;;;;;;5013279;28;20410;-73
2023/05/17 11:26:17;;;;;;;0.40;0.40;;;16.40;42.30;;;;;;5014986;28;20466;-73
2023/05/17 11:28:43;;;;;;;1.90;1.17;;;16.30;42.10;;;;;;5017208;28;20398;-73
2023/05/17 11:31:09;;;;;;;0.40;0.40;;;16.20;44.70;;;;;;5017172;28;20785;-74
2023/05/17 11:33:53;;;;;;;0.70;0.70;;;16.50;47.10;;;;;;5016900;28;20327;-73
2023/05/17 11:36:20;;;;;;;0.50;0.50;;;16.90;42.40;;;;;;5016841;28;20168;-74
2023/05/17 11:39:07;;;;;;;0.40;0.40;;;16.80;42.00;;;;;;5016814;28;20422;-73
2023/05/17 11:41:36;;;;;;;0.80;0.63;;;16.90;43.10;;;;;;5016814;28;20476;-72
2023/05/17 11:44:02;;;;;;;0.60;0.60;;;16.60;42.30;;;;;;5016882;28;20489;-74
2023/05/17 11:46:29;;;;;;;0.80;0.80;;;16.00;43.70;;;;;;4998970;28;20453;-72
2023/05/17 11:48:56;;;;;;;1.23;0.80;;;16.00;46.40;;;;;;5016758;28;20407;-73
2023/05/17 11:51:23;;;;;;;0.83;0.80;;;16.20;43.60;;;;;;5016930;28;20783;-73
2023/05/17 11:53:49;;;;;;;0.50;0.40;;;16.10;44.10;;;;;;5016858;28;20944;-73
2023/05/17 11:56:15;;;;;;;1.33;0.90;;;15.60;43.90;;;;;;5016453;28;20415;-73
2023/05/17 11:58:42;;;;;;;0.60;0.60;;;15.60;47.00;;;;;;5016446;28;20406;-72
2023/05/17 12:01:07;;;;;;;1.00;0.90;;;15.70;48.10;;;;;;5016553;28;20434;-73
2023/05/17 12:03:34;;;;;;;0.43;0.43;;;15.90;44.70;;;;;;4998919;28;20483;-73
2023/05/17 12:06:13;;;;;;;0.30;0.30;;;16.30;42.80;;;;;;5016239;28;20206;-73
2023/05/17 12:08:43;;;;;;;0.90;0.80;;;16.70;41.40;;;;;;5016611;28;20490;-74
2023/05/17 12:11:12;;;;;;;0.43;0.43;;;16.60;41.80;;;;;;5016126;28;20426;-74
2023/05/17 12:13:40;;;;;;;0.73;0.73;;;16.70;44.50;;;;;;5016441;28;20435;-74
2023/05/17 12:16:11;;;;;;;1.57;1.13;;;16.90;43.30;;;;;;5016063;28;20411;-73
2023/05/17 12:18:46;;;;;;;1.97;1.87;;;17.00;43.50;;;;;;5016284;28;20439;-74
2023/05/17 12:21:13;;;;;;;0.47;0.47;;;16.80;43.60;;;;;;5016122;28;20800;-73
2023/05/17 12:23:43;;;;;;;1.77;1.67;;;16.80;44.30;;;;;;5016030;28;20445;-73
2023/05/17 12:26:15;;;;;;;0.40;0.40;;;16.80;42.30;;;;;;5015785;28;20794;-73
2023/05/17 12:28:43;;;;;;;1.03;1.03;;;16.70;43.00;;;;;;5016521;28;20461;-74
2023/05/17 12:31:18;;;;;;;0.50;0.43;;;16.30;45.60;;;;;;5015973;28;20476;-73
2023/05/17 12:33:46;;;;;;;1.63;1.23;;;16.40;45.50;;;;;;5015993;28;20399;-74
2023/05/17 12:36:13;;;;;;;0.40;0.40;;;16.60;46.80;;;;;;5015244;28;20418;-74
2023/05/17 12:38:40;;;;;;;0.50;0.50;;;16.30;44.10;;;;;;5016029;28;20482;-73
2023/05/17 12:41:08;;;;;;;1.33;0.87;;;16.30;43.40;;;;;;5015694;28;20473;-74
2023/05/17 12:43:36;;;;;;;0.93;0.90;;;16.40;45.20;;;;;;5015777;28;20415;-72
2023/05/17 12:46:11;;;;;;;0.97;0.97;;;16.40;44.50;;;;;;5015377;28;20975;-72
2023/05/17 12:48:38;;;;;;;4.73;0.90;;;16.40;45.30;;;;;;5015598;28;20528;-73
2023/05/17 12:51:07;;;;;;;6.30;0.80;;;16.60;43.00;;;;;;5015665;28;20509;-74
2023/05/17 12:53:40;;;;;;;1.40;0.50;;;16.40;44.80;;;;;;5015586;28;20984;-73